Time;durP1;ratioP1;P1;durP2;ratioP2;P2;SDS_P1;SDS_P2;PMS_P1;PMS_P2;Temp;Humidity;BMP_temperature;BMP_pressure;BME280_temperature;BME280_humidity;BME280_pressure;Samples;Min_cycle;Max_cycle;Signal;HPM_P1;HPM_P2
2022/06/23 00:00:37;;;;;;;6.10;5.53;;;19.10;99.90;;;;;;5035177;28;20253;-65
2022/06/23 00:03:05;;;;;;;6.47;5.60;;;19.10;99.90;;;;;;5034041;28;20171;-65
2022/06/23 00:05:37;;;;;;;5.70;5.30;;;19.10;99.90;;;;;;5050650;28;20695;-65
2022/06/23 00:08:07;;;;;;;5.50;5.00;;;19.00;99.90;;;;;;5053891;28;20175;-65
2022/06/23 00:10:38;;;;;;;5.40;4.90;;;18.90;99.90;;;;;;5035833;28;20280;-65
2022/06/23 00:13:16;;;;;;;5.47;5.07;;;18.90;99.90;;;;;;5014082;28;20556;-65
2022/06/23 00:15:44;;;;;;;5.60;5.10;;;18.90;99.90;;;;;;5050380;28;20185;-65
2022/06/23 00:18:20;;;;;;;5.57;5.17;;;19.00;99.90;;;;;;5053668;28;20176;-65
2022/06/23 00:20:51;;;;;;;6.03;5.43;;;18.90;99.90;;;;;;5035331;28;20179;-65
2022/06/23 00:23:25;;;;;;;7.60;6.00;;;18.90;99.90;;;;;;5033819;28;20182;-65
2022/06/23 00:26:09;;;;;;;6.83;6.23;;;18.80;99.90;;;;;;5034673;28;20624;-65
2022/06/23 00:28:43;;;;;;;6.73;6.13;;;18.90;99.90;;;;;;5033663;28;20237;-65
2022/06/23 00:31:28;;;;;;;6.20;5.60;;;18.90;99.90;;;;;;5053362;28;20543;-65
2022/06/23 00:33:54;;;;;;;5.63;5.30;;;18.90;99.90;;;;;;5052165;28;20194;-65
2022/06/23 00:36:37;;;;;;;4.90;4.50;;;18.80;99.90;;;;;;5034058;28;20218;-65
2022/06/23 00:39:19;;;;;;;5.73;5.23;;;18.80;99.90;;;;;;5016340;28;20202;-65
2022/06/23 00:41:46;;;;;;;5.53;5.03;;;18.70;99.90;;;;;;5053212;28;20171;-65
2022/06/23 00:44:23;;;;;;;5.90;5.50;;;18.70;99.90;;;;;;5033043;28;20283;-65
2022/06/23 00:46:52;;;;;;;5.10;4.70;;;18.80;99.90;;;;;;5033224;28;20248;-65
2022/06/23 00:49:50;;;;;;;8.97;5.47;;;18.70;99.90;;;;;;5035127;28;20211;-65
2022/06/23 00:52:37;;;;;;;8.07;5.20;;;18.70;99.90;;;;;;5050881;28;20436;-65
2022/06/23 00:55:28;;;;;;;6.07;5.67;;;18.80;99.90;;;;;;5032750;28;20167;-65
2022/06/23 00:57:59;;;;;;;5.53;5.03;;;18.80;99.90;;;;;;5039506;28;20186;-65
2022/06/23 01:00:34;;;;;;;5.63;5.33;;;18.80;99.90;;;;;;5053128;28;20198;-65
2022/06/23 01:03:18;;;;;;;6.30;5.90;;;18.80;99.90;;;;;;5046568;28;20179;-65
2022/06/23 01:06:06;;;;;;;6.33;5.77;;;18.80;99.90;;;;;;5032610;28;20668;-65
2022/06/23 01:08:46;;;;;;;5.80;5.30;;;18.80;99.90;;;;;;5033983;28;20219;-65
2022/06/23 01:11:33;;;;;;;6.13;5.77;;;18.70;99.90;;;;;;5041790;28;20175;-65
2022/06/23 01:14:14;;;;;;;5.83;5.43;;;18.80;99.90;;;;;;5051717;28;20265;-65
2022/06/23 01:16:44;;;;;;;5.43;5.03;;;18.80;99.90;;;;;;5040046;28;20186;-65
2022/06/23 01:19:38;;;;;;;6.00;5.50;;;18.80;99.90;;;;;;5032468;28;20215;-65
2022/06/23 01:22:14;;;;;;;5.80;5.37;;;18.70;99.90;;;;;;5049007;28;20175;-65
2022/06/23 01:24:49;;;;;;;5.73;5.40;;;18.70;99.90;;;;;;5045530;28;20536;-65
2022/06/23 01:27:23;;;;;;;5.70;5.20;;;18.70;99.90;;;;;;5032388;28;20238;-64
2022/06/23 01:29:53;;;;;;;6.03;5.43;;;18.60;99.90;;;;;;5039839;28;20289;-65
2022/06/23 01:32:34;;;;;;;5.93;5.50;;;18.50;99.90;;;;;;5052458;28;20598;-65
2022/06/23 01:35:07;;;;;;;6.90;5.20;;;18.40;99.90;;;;;;5043153;28;20176;-65
2022/06/23 01:37:58;;;;;;;5.90;5.50;;;18.40;99.90;;;;;;5032355;28;20175;-65
2022/06/23 01:40:30;;;;;;;7.93;6.50;;;18.30;99.90;;;;;;5051457;28;20586;-65
2022/06/23 01:43:21;;;;;;;5.60;5.20;;;18.30;99.90;;;;;;5051998;28;20174;-65
2022/06/23 01:46:04;;;;;;;6.23;5.80;;;18.20;99.90;;;;;;5011985;28;20215;-65
2022/06/23 01:48:52;;;;;;;6.20;5.70;;;18.10;99.90;;;;;;5020280;28;20610;-65
2022/06/23 01:51:22;;;;;;;6.10;5.70;;;18.10;99.90;;;;;;5052026;28;20171;-65
2022/06/23 01:53:48;;;;;;;7.23;6.83;;;18.00;99.90;;;;;;5045841;28;20176;-65
2022/06/23 01:56:14;;;;;;;5.93;5.53;;;17.90;99.90;;;;;;5032026;28;20559;-65
2022/06/23 01:58:51;;;;;;;6.47;5.87;;;17.80;99.90;;;;;;5035563;28;20198;-65
2022/06/23 02:01:58;;;;;;;6.40;5.80;;;17.70;99.90;;;;;;5051874;28;20175;-65
2022/06/23 02:04:36;;;;;;;5.70;5.10;;;17.80;99.90;;;;;;5018534;28;20207;-65
2022/06/23 02:07:19;;;;;;;5.97;5.60;;;17.80;99.90;;;;;;5031670;28;20199;-65
2022/06/23 02:09:48;;;;;;;5.57;4.80;;;17.80;99.90;;;;;;5048768;28;20675;-65
2022/06/23 02:12:21;;;;;;;5.47;4.93;;;17.90;99.90;;;;;;5051813;28;20652;-65
2022/06/23 02:15:14;;;;;;;6.47;5.67;;;18.00;99.90;;;;;;5037353;28;20234;-64
2022/06/23 02:17:59;;;;;;;5.60;5.13;;;18.00;99.90;;;;;;5016799;28;20186;-64
2022/06/23 02:20:33;;;;;;;6.10;5.57;;;18.10;99.90;;;;;;5051544;28;20206;-64
2022/06/23 02:23:07;;;;;;;6.50;5.97;;;18.10;99.90;;;;;;5050749;28;20174;-65
2022/06/23 02:25:38;;;;;;;7.30;6.70;;;18.20;99.90;;;;;;5051147;28;20198;-65
2022/06/23 02:28:16;;;;;;;6.83;6.43;;;18.20;99.90;;;;;;5050495;28;20173;-65
2022/06/23 02:30:50;;;;;;;6.50;5.57;;;18.20;99.90;;;;;;5031365;28;20704;-65
2022/06/23 02:33:27;;;;;;;6.10;5.60;;;18.20;99.90;;;;;;5033126;28;20167;-65
2022/06/23 02:36:33;;;;;;;7.10;6.43;;;18.20;99.90;;;;;;5051360;28;20180;-66
2022/06/23 02:39:07;;;;;;;6.60;6.10;;;18.20;99.90;;;;;;5044054;28;20677;-65
2022/06/23 02:42:06;;;;;;;6.20;5.70;;;18.10;99.90;;;;;;5031490;28;20171;-64
2022/06/23 02:44:55;;;;;;;7.63;6.10;;;18.00;99.90;;;;;;5018737;28;20222;-64
2022/06/23 02:47:45;;;;;;;6.33;5.73;;;17.90;99.90;;;;;;5051183;28;20285;-65
2022/06/23 02:50:17;;;;;;;6.17;5.70;;;17.90;99.90;;;;;;5034970;28;20199;-65
2022/06/23 02:53:01;;;;;;;6.40;5.90;;;17.90;99.90;;;;;;5031659;28;20176;-65
2022/06/23 02:55:53;;;;;;;6.37;5.87;;;17.80;99.90;;;;;;5048508;28;20175;-65
2022/06/23 02:58:48;;;;;;;6.43;6.03;;;17.80;99.90;;;;;;5051237;28;20163;-65
2022/06/23 03:01:25;;;;;;;6.33;5.83;;;17.70;99.90;;;;;;5011695;28;20172;-65
2022/06/23 03:04:15;;;;;;;6.73;6.23;;;17.70;99.90;;;;;;5018289;28;20175;-65
2022/06/23 03:06:47;;;;;;;7.40;6.57;;;17.70;99.90;;;;;;5051226;28;20617;-64
2022/06/23 03:09:35;;;;;;;7.47;6.97;;;17.60;99.90;;;;;;5045027;28;20207;-65
2022/06/23 03:12:27;;;;;;;6.33;5.83;;;17.60;99.90;;;;;;5037533;28;20175;-65
2022/06/23 03:15:01;;;;;;;6.80;6.20;;;17.60;99.90;;;;;;5049238;28;20183;-65
2022/06/23 03:17:32;;;;;;;6.57;6.07;;;17.60;99.90;;;;;;5041430;28;20179;-65
2022/06/23 03:20:18;;;;;;;6.70;6.30;;;17.60;99.90;;;;;;5030870;28;20207;-65
2022/06/23 03:23:28;;;;;;;13.30;12.60;;;17.60;99.90;;;;;;5042400;28;20265;-65
2022/06/23 03:26:17;;;;;;;7.23;6.63;;;17.60;99.90;;;;;;4969724;28;20209;-65
2022/06/23 03:29:00;;;;;;;6.23;5.60;;;17.60;99.90;;;;;;4942392;29;20234;-65
2022/06/23 03:31:39;;;;;;;6.40;5.90;;;17.60;99.90;;;;;;5013974;28;20198;-66
2022/06/23 03:34:32;;;;;;;6.20;5.70;;;17.70;99.90;;;;;;5010896;28;20168;-65
2022/06/23 03:37:00;;;;;;;7.13;5.80;;;17.70;99.90;;;;;;5019015;28;20266;-65
2022/06/23 03:42:39;;;;;;;6.53;6.03;;;17.90;99.90;;;;;;5044452;28;20189;-65
2022/06/23 03:45:24;;;;;;;5.50;5.10;;;18.00;99.90;;;;;;5053940;28;20194;-64
2022/06/23 03:48:18;;;;;;;6.63;6.00;;;18.00;99.90;;;;;;5053835;28;20186;-65
2022/06/23 03:50:48;;;;;;;6.17;5.67;;;18.20;99.90;;;;;;5053932;28;20160;-65
2022/06/23 03:53:23;;;;;;;5.93;5.53;;;18.20;99.90;;;;;;5053622;28;20224;-65
2022/06/23 03:55:54;;;;;;;6.17;5.67;;;18.20;99.90;;;;;;5054014;28;20170;-65
2022/06/23 03:58:27;;;;;;;6.67;6.13;;;18.30;99.90;;;;;;5050193;28;20285;-65
2022/06/23 04:01:05;;;;;;;7.03;6.30;;;18.30;99.90;;;;;;5054203;28;20170;-64
2022/06/23 04:03:46;;;;;;;5.70;5.30;;;18.40;99.90;;;;;;5054024;28;20175;-65
2022/06/23 04:06:21;;;;;;;6.13;5.73;;;18.40;99.90;;;;;;5051937;28;20210;-65
2022/06/23 04:09:04;;;;;;;6.00;5.50;;;18.50;99.90;;;;;;5033961;28;20190;-65
2022/06/23 04:11:43;;;;;;;5.90;5.23;;;18.60;99.90;;;;;;5036648;28;20180;-65
2022/06/23 04:14:13;;;;;;;5.97;5.23;;;18.60;99.90;;;;;;5053785;28;20167;-65
2022/06/23 04:16:40;;;;;;;5.80;5.30;;;18.70;99.90;;;;;;5049395;28;20183;-65
2022/06/23 04:19:15;;;;;;;6.73;5.50;;;18.80;99.90;;;;;;5034224;28;20218;-65
2022/06/23 04:21:46;;;;;;;5.80;5.30;;;18.80;99.90;;;;;;5043961;28;20269;-65
2022/06/23 04:24:17;;;;;;;6.10;5.60;;;19.00;99.90;;;;;;5053325;28;20204;-65
2022/06/23 04:26:47;;;;;;;7.50;5.03;;;19.20;99.90;;;;;;5043810;28;20196;-65
2022/06/23 04:29:25;;;;;;;5.77;5.43;;;19.40;99.90;;;;;;5033659;28;20188;-65
2022/06/23 04:31:57;;;;;;;5.17;4.87;;;19.60;99.90;;;;;;5049829;28;20163;-65
2022/06/23 04:34:29;;;;;;;5.20;4.80;;;19.80;99.90;;;;;;5053356;28;20199;-65
2022/06/23 04:36:55;;;;;;;6.07;5.57;;;20.00;99.90;;;;;;5046813;28;20183;-65
2022/06/23 04:39:30;;;;;;;5.87;5.47;;;20.10;99.90;;;;;;5053373;28;20202;-65
2022/06/23 04:42:19;;;;;;;13.80;13.10;;;20.30;99.90;;;;;;5036922;28;20555;-65
2022/06/23 04:44:49;;;;;;;6.40;6.00;;;20.40;99.90;;;;;;5032689;28;20233;-65
2022/06/23 04:47:19;;;;;;;6.10;5.50;;;20.60;99.90;;;;;;5033558;28;20203;-65
2022/06/23 04:49:54;;;;;;;10.85;9.95;;;20.80;99.90;;;;;;5033186;28;20223;-65
2022/06/23 04:52:26;;;;;;;7.43;6.93;;;21.00;99.90;;;;;;5051088;28;20545;-66
2022/06/23 04:55:01;;;;;;;8.17;5.47;;;21.20;99.90;;;;;;5052305;28;20168;-65
2022/06/23 04:57:33;;;;;;;7.80;6.93;;;21.30;99.90;;;;;;5041698;28;20553;-66
2022/06/23 05:00:02;;;;;;;5.60;5.10;;;21.50;99.90;;;;;;5032230;28;20215;-66
2022/06/23 05:02:46;;;;;;;4.90;4.50;;;21.60;99.90;;;;;;5015352;28;20580;-66
2022/06/23 05:05:17;;;;;;;4.75;4.45;;;21.80;99.90;;;;;;5033207;28;20179;-66
2022/06/23 05:07:49;;;;;;;5.32;4.97;;;21.90;99.90;;;;;;5032648;28;20550;-66
2022/06/23 05:10:20;;;;;;;7.85;4.30;;;22.10;99.90;;;;;;5032860;28;20214;-66
2022/06/23 05:12:58;;;;;;;6.32;4.80;;;22.30;99.90;;;;;;5032776;28;20176;-66
2022/06/23 05:16:05;;;;;;;5.22;4.45;;;22.40;99.90;;;;;;5032965;28;20194;-66
2022/06/23 05:18:34;;;;;;;4.75;4.07;;;22.60;99.90;;;;;;4971112;28;20287;-66
2022/06/23 05:21:08;;;;;;;5.55;4.40;;;22.90;99.90;;;;;;4971543;28;20170;-66
2022/06/23 05:23:45;;;;;;;5.07;4.57;;;23.10;99.90;;;;;;4994809;28;20199;-66
2022/06/23 05:26:26;;;;;;;4.60;4.30;;;23.20;99.90;;;;;;5012794;28;20298;-66
2022/06/23 05:29:00;;;;;;;4.82;4.40;;;23.40;99.90;;;;;;5012709;28;20203;-66
2022/06/23 05:31:31;;;;;;;5.90;4.40;;;23.60;99.90;;;;;;5012669;28;20182;-68
2022/06/23 05:34:04;;;;;;;5.28;4.50;;;23.70;99.90;;;;;;5012748;28;20160;-66
2022/06/23 05:36:44;;;;;;;4.45;4.05;;;23.80;99.90;;;;;;5017156;28;20186;-65
2022/06/23 05:39:30;;;;;;;5.32;4.93;;;23.90;99.90;;;;;;5051972;28;20191;-65
2022/06/23 05:42:00;;;;;;;4.88;4.47;;;24.00;99.90;;;;;;5051548;28;20163;-65
2022/06/23 05:44:31;;;;;;;5.13;4.00;;;24.10;99.90;;;;;;5052121;28;20175;-65
2022/06/23 05:47:00;;;;;;;4.72;4.32;;;24.20;99.90;;;;;;5048419;28;20215;-68
2022/06/23 05:49:34;;;;;;;4.20;3.78;;;24.30;99.90;;;;;;5032519;28;20620;-66
2022/06/23 05:52:05;;;;;;;4.50;4.03;;;24.30;99.90;;;;;;5032134;28;20531;-66
2022/06/23 05:54:44;;;;;;;5.43;4.40;;;24.30;99.90;;;;;;5032115;28;20221;-66
2022/06/23 05:57:39;;;;;;;5.32;4.35;;;24.30;99.90;;;;;;5032203;28;20176;-66
2022/06/23 06:00:20;;;;;;;6.05;4.25;;;24.30;99.90;;;;;;5031245;28;20580;-67
2022/06/23 06:02:54;;;;;;;4.28;3.97;;;24.30;99.90;;;;;;5032168;28;20604;-67
2022/06/23 06:05:43;;;;;;;6.22;4.38;;;24.40;99.90;;;;;;5031234;28;20181;-67
2022/06/23 06:08:17;;;;;;;4.57;4.18;;;24.70;99.90;;;;;;5032091;28;20176;-67
2022/06/23 06:10:43;;;;;;;5.97;4.40;;;25.10;99.90;;;;;;5031993;28;20740;-65
2022/06/23 06:13:18;;;;;;;5.18;4.22;;;25.40;99.90;;;;;;5031998;28;20167;-67
2022/06/23 06:15:48;;;;;;;4.93;4.45;;;25.70;99.90;;;;;;5031797;28;20173;-65
2022/06/23 06:18:26;;;;;;;4.60;4.13;;;25.90;99.90;;;;;;5031781;28;20160;-65
2022/06/23 06:20:55;;;;;;;7.68;4.20;;;26.10;99.90;;;;;;5031864;28;20179;-65
2022/06/23 06:23:46;;;;;;;6.13;4.22;;;26.40;99.90;;;;;;5031631;28;20624;-65
2022/06/23 06:26:15;;;;;;;5.18;4.68;;;26.80;99.90;;;;;;5031326;28;20584;-66
2022/06/23 06:28:42;;;;;;;5.43;4.75;;;27.00;99.90;;;;;;5031680;28;20195;-66
2022/06/23 06:31:26;;;;;;;7.43;5.15;;;27.00;99.90;;;;;;5031666;28;20179;-66
2022/06/23 06:33:54;;;;;;;4.65;4.25;;;26.70;99.90;;;;;;5031320;28;20178;-66
2022/06/23 06:36:28;;;;;;;6.32;5.57;;;26.40;99.90;;;;;;5031800;28;20622;-66
2022/06/23 06:39:01;;;;;;;5.28;4.78;;;26.30;99.90;;;;;;5031676;28;20187;-66
2022/06/23 06:41:27;;;;;;;10.05;5.57;;;26.30;99.90;;;;;;5031823;28;20175;-67
2022/06/23 06:43:53;;;;;;;6.03;4.47;;;26.20;99.90;;;;;;5031394;28;20576;-66
2022/06/23 06:46:19;;;;;;;5.13;4.68;;;26.20;99.90;;;;;;5014208;28;20699;-67
2022/06/23 06:48:44;;;;;;;10.35;4.80;;;26.50;99.90;;;;;;5031605;28;20191;-66
2022/06/23 06:51:20;;;;;;;8.02;4.75;;;26.70;99.90;;;;;;5031545;28;20164;-66
2022/06/23 06:53:55;;;;;;;5.53;4.28;;;27.10;99.90;;;;;;5031238;28;20163;-67
2022/06/23 06:56:33;;;;;;;10.90;4.97;;;27.30;99.90;;;;;;5031665;28;20222;-65
2022/06/23 06:59:29;;;;;;;5.75;5.22;;;27.70;99.90;;;;;;5030750;28;20187;-66
2022/06/23 07:02:03;;;;;;;7.32;5.07;;;27.90;99.90;;;;;;5023286;28;20200;-66
2022/06/23 07:04:54;;;;;;;9.98;5.18;;;28.10;99.90;;;;;;5031463;28;20175;-66
2022/06/23 07:07:26;;;;;;;7.65;4.68;;;28.20;99.90;;;;;;5031341;28;20230;-66
2022/06/23 07:09:58;;;;;;;9.32;5.15;;;28.50;99.90;;;;;;5031312;28;20188;-67
2022/06/23 07:12:48;;;;;;;11.07;5.35;;;28.80;99.90;;;;;;5031531;28;20652;-67
2022/06/23 07:15:20;;;;;;;9.65;4.38;;;29.30;99.90;;;;;;5032259;28;20183;-66
2022/06/23 07:17:56;;;;;;;8.75;5.07;;;29.60;99.90;;;;;;5035032;28;20171;-66
2022/06/23 07:20:28;;;;;;;4.93;3.92;;;29.70;99.90;;;;;;5034925;28;20207;-67
2022/06/23 07:23:29;;;;;;;10.20;5.35;;;29.70;99.90;;;;;;5035117;28;20180;-66
2022/06/23 07:26:23;;;;;;;5.45;4.80;;;29.90;99.90;;;;;;5023659;28;20246;-67
2022/06/23 07:28:53;;;;;;;6.70;4.72;;;30.10;99.90;;;;;;5034612;28;20187;-67
2022/06/23 07:31:26;;;;;;;7.70;4.82;;;30.30;99.90;;;;;;5034724;28;20210;-67
2022/06/23 07:34:05;;;;;;;8.75;4.78;;;30.40;99.90;;;;;;5034197;28;20199;-67
2022/06/23 07:36:43;;;;;;;6.18;4.95;;;30.50;99.90;;;;;;5034667;28;20175;-66
2022/06/23 07:39:16;;;;;;;8.98;4.90;;;30.60;99.90;;;;;;5034745;28;20195;-66
2022/06/23 07:41:46;;;;;;;4.60;4.10;;;30.70;99.90;;;;;;5035222;28;20172;-66
2022/06/23 07:44:18;;;;;;;6.82;4.75;;;30.70;99.90;;;;;;5034385;28;20193;-65
2022/06/23 07:46:44;;;;;;;7.82;5.75;;;30.50;99.90;;;;;;5034732;28;20203;-65
2022/06/23 07:49:10;;;;;;;12.02;4.97;;;30.40;99.90;;;;;;5034856;28;20525;-66
2022/06/23 07:51:37;;;;;;;6.70;4.60;;;30.20;99.90;;;;;;5034425;28;20174;-66
2022/06/23 07:54:04;;;;;;;8.07;4.90;;;30.30;99.90;;;;;;5034153;28;20171;-66
2022/06/23 07:56:32;;;;;;;9.52;4.45;;;30.50;99.90;;;;;;5034672;28;20644;-66
2022/06/23 07:59:12;;;;;;;6.97;4.47;;;30.60;99.90;;;;;;5033430;28;20544;-65
2022/06/23 08:01:50;;;;;;;6.50;5.00;;;30.70;99.90;;;;;;5034417;28;20167;-66
2022/06/23 08:04:16;;;;;;;6.18;5.05;;;30.80;99.90;;;;;;5033888;28;20177;-65
2022/06/23 08:06:42;;;;;;;6.40;4.88;;;30.70;99.90;;;;;;5034060;28;20285;-67
2022/06/23 08:09:31;;;;;;;5.68;4.97;;;30.50;99.90;;;;;;5033990;28;20634;-65
2022/06/23 08:16:49;;;;;;;6.82;5.15;;;30.70;99.90;;;;;;5033680;28;20181;-65
2022/06/23 08:17:44;;;;;;;11.23;5.10;;;30.60;99.90;;;;;;5033988;28;20183;-65
2022/06/23 08:20:15;;;;;;;9.25;4.45;;;30.80;99.90;;;;;;5033794;28;20207;-66
2022/06/23 08:22:42;;;;;;;10.10;4.78;;;31.30;99.90;;;;;;5033849;28;20175;-66
2022/06/23 08:25:09;;;;;;;5.53;4.15;;;31.50;99.90;;;;;;5033493;28;20171;-65
2022/06/23 08:27:37;;;;;;;6.70;4.40;;;31.80;99.90;;;;;;5032884;28;20214;-66
2022/06/23 08:30:16;;;;;;;8.10;4.55;;;32.00;99.90;;;;;;5033662;28;20298;-66
2022/06/23 08:32:46;;;;;;;8.20;5.30;;;31.90;99.90;;;;;;5033752;28;20172;-66
2022/06/23 08:35:37;;;;;;;7.95;4.40;;;31.80;99.90;;;;;;5033465;28;20164;-66
2022/06/23 08:38:14;;;;;;;7.50;4.63;;;31.70;99.90;;;;;;5033674;28;20232;-67
2022/06/23 08:40:54;;;;;;;9.35;4.50;;;31.60;99.90;;;;;;5033734;28;20517;-66
2022/06/23 08:43:37;;;;;;;7.60;5.13;;;31.80;99.90;;;;;;5032901;28;20176;-66
2022/06/23 08:46:36;;;;;;;5.50;4.95;;;31.80;99.90;;;;;;5033471;28;20234;-66
2022/06/23 08:49:17;;;;;;;7.40;4.70;;;32.00;99.90;;;;;;5033620;28;20195;-67
2022/06/23 08:52:05;;;;;;;6.95;4.80;;;32.10;99.90;;;;;;5033930;28;20167;-67
2022/06/23 08:54:48;;;;;;;5.93;5.05;;;32.10;99.90;;;;;;5033392;28;20168;-67
2022/06/23 08:57:19;;;;;;;4.68;4.38;;;31.80;99.90;;;;;;5033556;28;20746;-66
2022/06/23 09:00:06;;;;;;;7.68;4.28;;;32.00;99.90;;;;;;5032791;28;20940;-64
2022/06/23 09:02:59;;;;;;;11.07;5.03;;;32.00;99.90;;;;;;5033384;28;20671;-65
2022/06/23 09:05:31;;;;;;;8.05;4.63;;;32.00;99.90;;;;;;5033027;28;20179;-67
2022/06/23 09:08:19;;;;;;;6.55;4.88;;;31.90;99.90;;;;;;5033117;28;20168;-66
2022/06/23 09:11:21;;;;;;;5.28;4.28;;;32.00;99.90;;;;;;5033126;28;20175;-66
2022/06/23 09:14:02;;;;;;;7.13;4.40;;;32.10;99.90;;;;;;5032752;28;20654;-66
2022/06/23 09:16:42;;;;;;;6.07;4.57;;;32.50;99.90;;;;;;5032877;28;20175;-66
2022/06/23 09:19:14;;;;;;;5.43;4.30;;;32.60;99.90;;;;;;5032855;28;20685;-65
2022/06/23 09:21:54;;;;;;;5.80;4.10;;;33.00;99.90;;;;;;5032649;28;20175;-66
2022/06/23 09:24:36;;;;;;;4.60;4.25;;;33.30;99.90;;;;;;5032497;28;20183;-66
2022/06/23 09:27:20;;;;;;;4.82;4.20;;;33.20;99.90;;;;;;5032500;28;20199;-65
2022/06/23 09:30:06;;;;;;;6.25;4.00;;;33.30;99.90;;;;;;5032331;28;20192;-65
2022/06/23 09:32:53;;;;;;;6.43;4.57;;;33.30;99.90;;;;;;5032589;28;20172;-65
2022/06/23 09:35:22;;;;;;;5.50;4.40;;;33.30;99.90;;;;;;5032379;28;20552;-67
2022/06/23 09:37:50;;;;;;;4.50;4.10;;;33.40;99.90;;;;;;5032488;28;20547;-65
2022/06/23 09:40:22;;;;;;;4.80;4.30;;;33.80;99.90;;;;;;5032596;28;20192;-67
2022/06/23 09:43:19;;;;;;;4.30;3.92;;;33.90;99.90;;;;;;5032676;28;20180;-66
2022/06/23 09:45:58;;;;;;;5.30;3.70;;;34.00;99.90;;;;;;5032132;28;20203;-65
2022/06/23 09:48:46;;;;;;;4.30;3.83;;;34.30;99.90;;;;;;5032443;28;20167;-66
2022/06/23 09:51:19;;;;;;;4.32;3.92;;;34.70;99.90;;;;;;5032465;28;20199;-66
2022/06/23 09:54:05;;;;;;;12.27;3.97;;;34.60;99.90;;;;;;5032122;28;20676;-66
2022/06/23 09:56:58;;;;;;;7.32;4.20;;;34.70;99.90;;;;;;5032501;28;20186;-65
2022/06/23 09:59:56;;;;;;;5.85;4.10;;;34.70;99.90;;;;;;5031153;28;20206;-66
2022/06/23 10:02:43;;;;;;;4.30;3.90;;;34.80;99.90;;;;;;5032020;28;20176;-66
2022/06/23 10:05:18;;;;;;;5.65;3.85;;;34.80;99.90;;;;;;5029490;28;20518;-65
2022/06/23 10:08:11;;;;;;;5.00;4.47;;;34.70;99.90;;;;;;5031601;28;20262;-66
2022/06/23 10:11:14;;;;;;;5.28;4.53;;;34.70;99.90;;;;;;5031833;28;20171;-66
2022/06/23 10:14:13;;;;;;;4.22;3.78;;;34.70;99.90;;;;;;5013549;28;20186;-65
2022/06/23 10:17:09;;;;;;;4.88;3.97;;;34.70;99.90;;;;;;5031674;28;20171;-66
2022/06/23 10:19:56;;;;;;;6.97;4.05;;;34.80;99.90;;;;;;5072799;22;20222;-65
2022/06/23 10:22:52;;;;;;;4.93;4.32;;;34.90;99.90;;;;;;5071612;28;20247;-65
2022/06/23 10:25:33;;;;;;;4.90;4.40;;;34.80;99.90;;;;;;5071668;28;20161;-65
2022/06/23 10:28:13;;;;;;;4.40;3.78;;;34.90;99.90;;;;;;5071547;28;20184;-65
2022/06/23 10:30:50;;;;;;;4.60;4.28;;;34.90;99.90;;;;;;5071988;28;20189;-66
2022/06/23 10:33:40;;;;;;;12.13;4.47;;;34.70;99.90;;;;;;5071625;28;20170;-65
2022/06/23 10:36:41;;;;;;;9.73;4.20;;;34.60;99.90;;;;;;5071259;28;20205;-65
2022/06/23 10:39:37;;;;;;;7.38;3.83;;;34.40;99.90;;;;;;5071406;28;20236;-66
2022/06/23 10:42:08;;;;;;;6.45;3.42;;;34.40;99.90;;;;;;5071454;28;20178;-66
2022/06/23 10:44:52;;;;;;;4.55;4.15;;;34.90;99.90;;;;;;5071389;28;20257;-66
2022/06/23 10:47:57;;;;;;;4.18;3.80;;;35.10;99.90;;;;;;5071483;28;20201;-66
2022/06/23 10:51:04;;;;;;;6.50;4.18;;;35.20;99.80;;;;;;5072824;28;20681;-66
2022/06/23 10:54:08;;;;;;;5.93;3.72;;;34.90;99.90;;;;;;5074310;28;20691;-66
2022/06/23 10:57:20;;;;;;;7.07;3.92;;;35.40;99.90;;;;;;5074108;28;20189;-66
2022/06/23 11:00:04;;;;;;;6.45;3.92;;;35.70;99.90;;;;;;5074668;28;20663;-66
2022/06/23 11:02:54;;;;;;;6.43;3.90;;;35.90;99.80;;;;;;5075467;28;20256;-66
2022/06/23 11:05:31;;;;;;;4.72;4.22;;;36.10;99.90;;;;;;5075120;28;20170;-66
2022/06/23 11:08:27;;;;;;;4.13;3.55;;;36.10;99.30;;;;;;5075106;28;20170;-64
2022/06/23 11:11:38;;;;;;;6.07;3.92;;;35.90;99.40;;;;;;5075065;28;20216;-68
2022/06/23 11:14:27;;;;;;;6.35;3.80;;;35.70;99.90;;;;;;5066091;28;20217;-68
2022/06/23 11:17:04;;;;;;;4.13;3.78;;;36.10;99.10;;;;;;5075075;28;20178;-67
2022/06/23 11:19:48;;;;;;;4.53;3.70;;;36.30;98.50;;;;;;5074915;28;20205;-67
2022/06/23 11:22:43;;;;;;;5.15;3.63;;;36.20;98.70;;;;;;5075113;28;20178;-67
2022/06/23 11:25:18;;;;;;;5.28;3.85;;;36.20;97.70;;;;;;5073892;28;20187;-67
2022/06/23 11:28:15;;;;;;;4.60;4.13;;;36.30;99.90;;;;;;5074776;28;20202;-66
2022/06/23 11:31:18;;;;;;;4.13;3.83;;;36.20;98.30;;;;;;5074895;28;20273;-67
2022/06/23 11:34:01;;;;;;;3.70;3.40;;;36.00;97.90;;;;;;5071498;28;20685;-68
2022/06/23 11:36:29;;;;;;;4.97;3.85;;;36.00;99.10;;;;;;5074690;28;20703;-67
2022/06/23 11:39:04;;;;;;;5.68;4.00;;;36.10;98.90;;;;;;5074458;28;20190;-67
2022/06/23 11:41:50;;;;;;;4.13;3.55;;;36.30;99.90;;;;;;5074666;28;20252;-67
2022/06/23 11:44:24;;;;;;;4.97;3.10;;;36.30;99.50;;;;;;5074403;28;20174;-67
2022/06/23 11:47:15;;;;;;;11.55;4.10;;;36.40;98.90;;;;;;5074331;28;20205;-66
2022/06/23 11:50:03;;;;;;;9.20;4.18;;;36.50;98.60;;;;;;5074432;28;20198;-67
2022/06/23 11:53:03;;;;;;;4.85;4.00;;;36.50;98.10;;;;;;5073364;28;20180;-67
2022/06/23 11:55:34;;;;;;;7.18;4.00;;;36.40;97.80;;;;;;5065805;28;20190;-66
2022/06/23 11:58:24;;;;;;;4.60;3.58;;;36.30;98.10;;;;;;5074139;28;20517;-67
2022/06/23 12:01:02;;;;;;;3.97;3.60;;;36.30;98.40;;;;;;5071494;28;20194;-67
2022/06/23 12:04:00;;;;;;;4.88;4.45;;;36.60;97.70;;;;;;5073256;28;20162;-67
2022/06/23 12:06:56;;;;;;;7.82;4.20;;;36.50;97.80;;;;;;5074214;28;20569;-66
2022/06/23 12:09:25;;;;;;;7.30;3.95;;;36.30;97.70;;;;;;5074267;28;20534;-66
2022/06/23 12:11:50;;;;;;;11.13;4.40;;;36.40;99.30;;;;;;5074012;28;20162;-66
2022/06/23 12:14:18;;;;;;;5.75;4.10;;;36.60;97.30;;;;;;5073882;28;20173;-66
2022/06/23 12:17:06;;;;;;;5.55;4.38;;;36.60;97.00;;;;;;5074136;28;20266;-65
2022/06/23 12:19:55;;;;;;;5.70;4.10;;;36.60;98.70;;;;;;5073777;28;20210;-67
2022/06/23 12:22:33;;;;;;;5.45;4.13;;;36.60;97.40;;;;;;5072662;28;20196;-67
2022/06/23 12:25:23;;;;;;;6.22;4.07;;;36.70;97.50;;;;;;5073686;28;20258;-67
2022/06/23 12:28:08;;;;;;;8.90;4.28;;;36.80;98.40;;;;;;5073900;28;20202;-67
2022/06/23 12:30:45;;;;;;;4.00;3.60;;;37.30;97.00;;;;;;5073887;28;20678;-66
2022/06/23 12:33:22;;;;;;;7.88;4.05;;;37.60;97.70;;;;;;5073799;28;20170;-67
2022/06/23 12:36:13;;;;;;;6.57;4.13;;;37.70;95.60;;;;;;5073512;28;20643;-66
2022/06/23 12:38:49;;;;;;;8.35;4.15;;;37.00;95.40;;;;;;5071910;28;20320;-67
2022/06/23 12:41:22;;;;;;;4.82;4.00;;;36.70;96.50;;;;;;5064562;28;20574;-67
2022/06/23 12:44:10;;;;;;;5.57;4.03;;;36.40;95.80;;;;;;5053078;28;20167;-67
2022/06/23 12:46:46;;;;;;;5.78;4.03;;;35.90;96.30;;;;;;5071323;28;20285;-68
2022/06/23 12:49:26;;;;;;;6.22;4.15;;;35.80;96.80;;;;;;5073275;28;20307;-67
2022/06/23 12:52:20;;;;;;;5.03;3.85;;;35.60;97.80;;;;;;5073203;28;20253;-67
2022/06/23 12:55:03;;;;;;;4.97;4.22;;;35.20;98.10;;;;;;5072794;28;20262;-67
2022/06/23 12:57:50;;;;;;;6.15;4.50;;;35.20;98.40;;;;;;5065764;28;20575;-67
2022/06/23 13:00:31;;;;;;;5.95;4.10;;;35.50;99.10;;;;;;5053149;28;20214;-67
2022/06/23 13:03:12;;;;;;;6.45;4.07;;;36.20;97.80;;;;;;5052985;28;20163;-67
2022/06/23 13:05:47;;;;;;;6.45;3.97;;;36.70;96.30;;;;;;5062778;28;20265;-67
2022/06/23 13:08:25;;;;;;;5.15;3.95;;;37.10;96.90;;;;;;5056924;28;20170;-67
2022/06/23 13:11:01;;;;;;;4.05;3.63;;;37.40;95.60;;;;;;5056587;28;20564;-67
2022/06/23 13:13:48;;;;;;;6.28;3.70;;;37.70;95.50;;;;;;5072249;28;20651;-67
2022/06/23 13:16:24;;;;;;;8.65;3.97;;;37.90;93.60;;;;;;5072756;28;20181;-67
2022/06/23 13:19:05;;;;;;;6.18;3.80;;;37.90;95.40;;;;;;5072859;28;20576;-66
2022/06/23 13:21:33;;;;;;;7.60;3.70;;;37.30;94.40;;;;;;5072715;28;20174;-67
2022/06/23 13:24:03;;;;;;;6.72;3.83;;;37.40;95.60;;;;;;5060187;28;20648;-67
2022/06/23 13:26:34;;;;;;;7.70;4.15;;;37.40;93.60;;;;;;5052493;28;20725;-66
2022/06/23 13:29:21;;;;;;;7.80;4.47;;;37.10;93.50;;;;;;5052352;28;20182;-67
2022/06/23 13:31:52;;;;;;;5.65;3.60;;;36.80;93.90;;;;;;5052343;28;20201;-67
2022/06/23 13:34:27;;;;;;;5.70;4.07;;;37.00;96.90;;;;;;5052214;28;20222;-66
2022/06/23 13:36:58;;;;;;;6.55;3.60;;;37.20;94.70;;;;;;5052291;28;20178;-66
2022/06/23 13:40:02;;;;;;;10.32;3.67;;;37.20;94.50;;;;;;5052663;28;20195;-66
2022/06/23 13:42:34;;;;;;;6.13;4.28;;;37.00;93.70;;;;;;5052399;28;20170;-66
2022/06/23 13:45:15;;;;;;;4.45;3.95;;;37.00;94.90;;;;;;5051910;28;20182;-67
2022/06/23 13:47:50;;;;;;;7.68;4.47;;;36.70;94.10;;;;;;5052005;28;20234;-67
2022/06/23 13:50:37;;;;;;;4.32;3.53;;;36.80;94.10;;;;;;5060297;28;20201;-67
2022/06/23 13:53:24;;;;;;;9.38;4.28;;;37.10;95.20;;;;;;5071568;28;20182;-67
2022/06/23 13:56:06;;;;;;;5.28;4.32;;;37.30;94.60;;;;;;5070955;28;20647;-66